Time;durP1;ratioP1;P1;durP2;ratioP2;P2;SDS_P1;SDS_P2;PMS_P1;PMS_P2;Temp;Humidity;BMP_temperature;BMP_pressure;BME280_temperature;BME280_humidity;BME280_pressure;Samples;Min_cycle;Max_cycle;Signal;HPM_P1;HPM_P2
2023/03/14 00:00:14;;;;;;;;;;;;;;;11.32;100.00;-18332.63;5048645;28;20064;-88
2023/03/14 00:02:40;;;;;;;9.18;2.47;;;;;;;11.21;100.00;-18329.88;5039255;28;19978;-89
2023/03/14 00:05:07;;;;;;;5.45;2.38;;;;;;;11.26;100.00;-18331.09;5059288;28;20464;-88
2023/03/14 00:07:35;;;;;;;6.97;2.70;;;;;;;11.30;100.00;-18332.34;5061773;28;20048;-88
2023/03/14 00:10:04;;;;;;;6.80;2.50;;;;;;;11.34;100.00;-18333.16;5039718;28;20095;-89
2023/03/14 00:12:32;;;;;;;5.93;2.53;;;;;;;11.28;100.00;-18331.78;5053077;28;20052;-87
2023/03/14 00:14:59;;;;;;;8.75;2.60;;;;;;;11.27;100.00;-18331.38;5040110;28;20239;-88
2023/03/14 00:17:24;;;;;;;6.35;2.58;;;;;;;11.22;100.00;-18330.00;5058493;28;20078;-88
2023/03/14 00:19:52;;;;;;;6.90;2.40;;;;;;;11.21;100.00;-18329.88;5043635;28;20040;-87
2023/03/14 00:22:17;;;;;;;7.57;2.00;;;;;;;11.21;100.00;-18329.72;5053169;28;20123;-87
2023/03/14 00:24:43;;;;;;;9.65;3.17;;;;;;;11.25;100.00;-18330.84;5055967;28;20491;-89
2023/03/14 00:27:08;;;;;;;8.75;2.58;;;;;;;11.23;100.00;-18330.41;5059973;28;20464;-88
2023/03/14 00:29:34;;;;;;;6.72;2.53;;;;;;;11.19;100.00;-18329.19;5044367;28;20068;-88
2023/03/14 00:32:00;;;;;;;9.30;1.85;;;;;;;11.18;100.00;-18328.91;5042522;28;20102;-88
2023/03/14 00:34:29;;;;;;;9.05;2.80;;;;;;;11.23;100.00;-18330.41;5057666;28;20135;-89
2023/03/14 00:36:54;;;;;;;;;;;;;;;11.21;100.00;-18329.88;5056340;28;20037;-88
2023/03/14 00:39:20;;;;;;;5.90;2.00;;;;;;;11.16;100.00;-18328.34;5045576;28;19916;-88
2023/03/14 00:41:45;;;;;;;5.50;2.15;;;;;;;11.14;100.00;-18327.94;5051075;28;20047;-88
2023/03/14 00:44:11;;;;;;;7.93;2.20;;;;;;;11.22;100.00;-18330.16;5043888;28;20538;-87
2023/03/14 00:46:36;;;;;;;5.57;2.00;;;;;;;11.18;100.00;-18328.91;5045999;28;20048;-88
2023/03/14 00:49:01;;;;;;;9.07;2.15;;;;;;;11.25;100.00;-18330.97;5057332;28;20111;-88
2023/03/14 00:51:27;;;;;;;9.38;3.05;;;;;;;11.32;100.00;-18332.75;5052471;28;20043;-87
2023/03/14 00:53:52;;;;;;;9.07;1.70;;;;;;;11.27;100.00;-18331.38;5059383;28;20055;-87
2023/03/14 00:56:18;;;;;;;6.72;2.60;;;;;;;11.23;100.00;-18330.28;5056179;28;20163;-87
2023/03/14 00:58:43;;;;;;;7.47;2.22;;;;;;;11.28;100.00;-18331.66;5054703;28;20519;-88
2023/03/14 01:01:13;;;;;;;8.65;2.53;;;;;;;11.30;100.00;-18332.34;5033923;28;20405;-86
2023/03/14 01:03:38;;;;;;;8.93;3.17;;;;;;;11.26;100.00;-18331.25;5033341;28;20056;-87
2023/03/14 01:06:25;;;;;;;8.82;2.38;;;;;;;11.28;100.00;-18331.66;5059068;28;20495;-87
2023/03/14 01:08:51;;;;;;;5.75;2.33;;;;;;;11.27;100.00;-18331.50;5041321;28;20526;-87
2023/03/14 01:11:29;;;;;;;5.13;2.33;;;;;;;11.25;100.00;-18330.84;5034367;28;20118;-87
2023/03/14 01:13:55;;;;;;;14.05;2.38;;;;;;;11.14;100.00;-18327.81;5050269;28;20049;-88
2023/03/14 01:16:23;;;;;;;6.85;1.98;;;;;;;11.13;100.00;-18327.53;5044236;28;20124;-87
2023/03/14 01:18:49;;;;;;;8.02;2.42;;;;;;;11.09;100.00;-18326.44;5056596;28;20045;-88
2023/03/14 01:21:26;;;;;;;6.22;2.45;;;;;;;10.95;100.00;-18322.72;5058886;28;20052;-88
2023/03/14 01:23:53;;;;;;;10.68;2.60;;;;;;;10.95;100.00;-18322.88;5042252;28;20047;-88
2023/03/14 01:26:22;;;;;;;9.45;2.45;;;;;;;10.88;100.00;-18320.94;5037121;28;20139;-87
2023/03/14 01:28:49;;;;;;;9.20;3.08;;;;;;;10.86;100.00;-18320.38;5052935;28;20052;-88
2023/03/14 01:31:14;;;;;;;11.68;3.22;;;;;;;10.81;100.00;-18319.00;5039261;28;20070;-88
2023/03/14 01:33:40;;;;;;;10.70;2.90;;;;;;;10.80;100.00;-18318.75;5050554;28;20079;-88
2023/03/14 01:36:07;;;;;;;9.43;3.38;;;;;;;10.77;100.00;-18317.91;5054752;28;20041;-87
2023/03/14 01:38:34;;;;;;;7.57;2.28;;;;;;;10.74;100.00;-18317.22;5061507;28;20052;-88
2023/03/14 01:41:01;;;;;;;8.57;2.40;;;;;;;10.71;100.00;-18316.28;5036839;28;20128;-87
2023/03/14 01:43:28;;;;;;;15.20;3.50;;;;;;;10.68;100.00;-18315.59;5060507;28;20087;-87
2023/03/14 01:45:56;;;;;;;6.18;1.98;;;;;;;10.70;100.00;-18316.13;5060647;28;20550;-87
2023/03/14 01:48:22;;;;;;;8.27;2.60;;;;;;;10.76;100.00;-18317.63;5046917;28;20164;-87
2023/03/14 01:50:47;;;;;;;13.55;2.13;;;;;;;10.75;100.00;-18317.38;5053668;28;20124;-87
2023/03/14 01:53:13;;;;;;;6.90;2.78;;;;;;;10.77;100.00;-18318.06;5052830;28;20117;-87
2023/03/14 01:55:39;;;;;;;8.23;2.42;;;;;;;10.80;100.00;-18318.75;5056530;28;20484;-89
2023/03/14 01:58:05;;;;;;;9.52;2.30;;;;;;;10.72;100.00;-18316.69;5054693;28;20102;-87
2023/03/14 02:00:31;;;;;;;9.40;2.10;;;;;;;10.74;100.00;-18317.09;5052216;28;20622;-87
2023/03/14 02:03:05;;;;;;;11.25;2.30;;;;;;;10.79;100.00;-18318.47;5038725;28;20041;-87
2023/03/14 02:05:35;;;;;;;11.13;2.72;;;;;;;10.81;100.00;-18319.00;5054284;28;20041;-87
2023/03/14 02:08:03;;;;;;;7.78;1.60;;;;;;;10.82;100.00;-18319.28;5029586;28;20040;-87
2023/03/14 02:10:33;;;;;;;6.65;2.03;;;;;;;10.78;100.00;-18318.31;5055618;28;20049;-87
2023/03/14 02:13:02;;;;;;;8.07;1.45;;;;;;;10.76;100.00;-18317.63;5058500;28;20105;-88
2023/03/14 02:15:28;;;;;;;7.32;1.67;;;;;;;10.74;100.00;-18317.22;5057867;28;20045;-88
2023/03/14 02:17:54;;;;;;;5.97;1.65;;;;;;;10.77;100.00;-18318.06;5058941;28;20070;-88
2023/03/14 02:20:54;;;;;;;8.55;1.50;;;;;;;10.79;100.00;-18318.47;5058200;28;20056;-88
2023/03/14 02:24:14;;;;;;;5.72;1.60;;;;;;;10.80;100.00;-18318.75;5020087;28;20424;-88
2023/03/14 02:26:45;;;;;;;6.78;1.77;;;;;;;10.80;100.00;-18318.75;4971931;28;20061;-90
2023/03/14 02:29:10;;;;;;;7.97;1.58;;;;;;;10.79;100.00;-18318.47;5059606;28;20411;-89
2023/03/14 02:31:36;;;;;;;5.72;1.48;;;;;;;10.78;100.00;-18318.19;5043858;28;20048;-88
2023/03/14 02:34:02;;;;;;;8.63;1.58;;;;;;;10.77;100.00;-18317.91;5059617;28;20048;-88
2023/03/14 02:36:30;;;;;;;6.82;1.33;;;;;;;10.79;100.00;-18318.47;5043335;28;20052;-87
2023/03/14 02:39:16;;;;;;;7.35;1.45;;;;;;;10.78;100.00;-18318.19;5043688;28;20136;-89
2023/03/14 02:41:42;;;;;;;4.75;1.23;;;;;;;10.73;100.00;-18316.81;5037471;28;20040;-88
2023/03/14 02:44:07;;;;;;;5.95;1.30;;;;;;;10.74;100.00;-18317.09;5041946;28;20033;-88
2023/03/14 02:46:33;;;;;;;7.18;1.80;;;;;;;10.78;100.00;-18318.19;5058806;28;20048;-89
2023/03/14 02:49:07;;;;;;;3.88;1.15;;;;;;;10.79;100.00;-18318.47;5054286;28;20048;-89
2023/03/14 02:51:33;;;;;;;5.13;1.15;;;;;;;10.75;100.00;-18317.38;5045136;28;20068;-90
2023/03/14 02:53:59;;;;;;;8.93;1.30;;;;;;;10.73;100.00;-18316.81;5061854;28;20367;-89
2023/03/14 02:56:24;;;;;;;7.32;1.20;;;;;;;10.86;100.00;-18320.25;5043497;28;20060;-89
2023/03/14 02:58:50;;;;;;;6.70;1.23;;;;;;;10.82;100.00;-18319.28;5043407;28;20094;-89
2023/03/14 03:01:15;;;;;;;5.32;1.40;;;;;;;10.77;100.00;-18317.91;5061715;28;20046;-89
2023/03/14 03:03:41;;;;;;;7.00;1.20;;;;;;;10.80;100.00;-18318.75;5046277;28;20270;-88
2023/03/14 03:06:06;;;;;;;4.82;1.02;;;;;;;10.69;100.00;-18315.72;5062347;28;20056;-89
2023/03/14 03:08:32;;;;;;;6.25;1.77;;;;;;;10.67;100.00;-18315.31;5037386;28;20044;-89
2023/03/14 03:10:58;;;;;;;6.32;1.42;;;;;;;10.50;100.00;-18310.78;5043855;28;20076;-87
2023/03/14 03:13:24;;;;;;;7.13;1.75;;;;;;;10.46;100.00;-18309.69;5053288;28;20049;-88
2023/03/14 03:15:49;;;;;;;10.48;2.10;;;;;;;10.43;100.00;-18308.84;5060902;28;20048;-88
2023/03/14 03:18:15;;;;;;;8.57;1.88;;;;;;;10.33;100.00;-18306.09;5055173;28;20132;-88
2023/03/14 03:20:40;;;;;;;9.55;2.47;;;;;;;10.24;100.00;-18303.63;5059341;28;20055;-89
2023/03/14 03:23:06;;;;;;;8.45;1.75;;;;;;;10.22;100.00;-18303.06;5042217;28;20045;-88
2023/03/14 03:25:32;;;;;;;7.38;1.85;;;;;;;10.12;100.00;-18300.59;5058799;28;20058;-87
2023/03/14 03:27:57;;;;;;;8.57;2.22;;;;;;;10.10;100.00;-18300.06;5043506;28;20046;-88
2023/03/14 03:30:23;;;;;;;6.78;1.63;;;;;;;10.06;100.00;-18298.81;5034464;28;20519;-89
2023/03/14 03:32:49;;;;;;;7.05;2.08;;;;;;;10.05;100.00;-18298.53;5053223;28;20044;-88
2023/03/14 03:35:14;;;;;;;9.80;2.45;;;;;;;10.03;100.00;-18298.13;5042197;28;20540;-88
2023/03/14 03:37:40;;;;;;;10.63;1.90;;;;;;;9.94;100.00;-18295.66;5057572;28;20504;-87
2023/03/14 03:40:06;;;;;;;9.48;1.50;;;;;;;9.95;100.00;-18295.94;5035196;28;20041;-88
2023/03/14 03:42:33;;;;;;;6.35;2.33;;;;;;;9.96;100.00;-18296.19;5059919;28;20045;-88
2023/03/14 03:44:59;;;;;;;10.60;2.65;;;;;;;9.99;100.00;-18296.88;5054675;28;22004;-87
2023/03/14 03:47:25;;;;;;;9.13;2.20;;;;;;;9.88;100.00;-18294.00;5036701;28;20053;-88
2023/03/14 03:49:50;;;;;;;6.15;2.05;;;;;;;9.83;100.00;-18292.63;5041276;28;20388;-87
2023/03/14 03:52:15;;;;;;;7.18;1.67;;;;;;;9.79;100.00;-18291.53;5039085;28;20064;-88
2023/03/14 03:54:41;;;;;;;9.90;2.72;;;;;;;9.84;100.00;-18292.91;5057752;28;20067;-89
2023/03/14 03:57:06;;;;;;;8.10;2.17;;;;;;;9.76;100.00;-18290.84;5036061;28;20045;-88
2023/03/14 03:59:32;;;;;;;9.35;2.75;;;;;;;9.75;100.00;-18290.44;5056364;28;20499;-88
2023/03/14 04:01:57;;;;;;;11.80;2.38;;;;;;;9.67;100.00;-18288.50;5062190;28;20368;-89
2023/03/14 04:04:23;;;;;;;11.52;2.70;;;;;;;9.68;100.00;-18288.78;5045846;28;20047;-88
2023/03/14 04:06:48;;;;;;;10.25;2.20;;;;;;;9.66;100.00;-18288.22;5039884;28;20056;-88
2023/03/14 04:09:14;;;;;;;7.85;2.17;;;;;;;9.58;100.00;-18286.03;5041651;28;20072;-87
2023/03/14 04:11:41;;;;;;;9.30;1.98;;;;;;;9.58;100.00;-18285.88;5043706;28;20037;-87
2023/03/14 04:14:06;;;;;;;9.70;2.30;;;;;;;9.56;100.00;-18285.47;5043217;28;20037;-88
2023/03/14 04:16:31;;;;;;;10.00;2.40;;;;;;;9.59;100.00;-18286.31;5038964;28;20044;-87
2023/03/14 04:18:57;;;;;;;11.75;2.92;;;;;;;9.58;100.00;-18286.03;5045629;28;20523;-88
2023/03/14 04:21:23;;;;;;;8.13;2.58;;;;;;;9.56;100.00;-18285.34;5034098;28;20391;-89
2023/03/14 04:23:49;;;;;;;6.75;1.90;;;;;;;9.54;100.00;-18284.78;5058972;28;20033;-87
2023/03/14 04:26:15;;;;;;;5.95;2.63;;;;;;;9.61;100.00;-18286.84;5057730;28;20267;-87
2023/03/14 04:28:41;;;;;;;12.82;2.60;;;;;;;9.53;100.00;-18284.50;5058366;28;20040;-87
2023/03/14 04:31:11;;;;;;;8.98;2.20;;;;;;;9.49;100.00;-18283.56;5054092;28;20071;-87
2023/03/14 04:33:37;;;;;;;9.38;2.80;;;;;;;9.52;100.00;-18284.25;5050995;28;20049;-87
2023/03/14 04:36:04;;;;;;;9.15;2.92;;;;;;;9.54;100.00;-18284.78;5058259;28;20095;-88
2023/03/14 04:38:29;;;;;;;8.77;2.20;;;;;;;9.65;100.00;-18287.94;5040970;28;20075;-87
2023/03/14 04:40:54;;;;;;;11.10;2.55;;;;;;;9.67;100.00;-18288.50;5056656;28;20540;-87
2023/03/14 04:43:20;;;;;;;4.70;1.67;;;;;;;9.68;100.00;-18288.78;5044195;28;20595;-87
2023/03/14 04:45:45;;;;;;;8.88;1.95;;;;;;;9.68;100.00;-18288.78;5040037;28;20061;-87
2023/03/14 04:48:12;;;;;;;11.25;2.65;;;;;;;9.65;100.00;-18287.94;5046066;28;20130;-88
2023/03/14 04:50:37;;;;;;;8.07;2.15;;;;;;;9.66;100.00;-18288.22;5059838;28;20041;-86
2023/03/14 04:53:03;;;;;;;11.93;2.35;;;;;;;9.67;100.00;-18288.50;5060999;28;20071;-89
2023/03/14 04:55:28;;;;;;;6.78;2.03;;;;;;;9.68;100.00;-18288.63;5068836;28;20036;-88
2023/03/14 04:57:53;;;;;;;7.50;2.53;;;;;;;9.63;100.00;-18287.41;5026176;28;20079;-85
2023/03/14 05:00:19;;;;;;;7.45;1.75;;;;;;;9.68;100.00;-18288.78;5038922;28;20072;-86
2023/03/14 05:02:44;;;;;;;10.63;2.67;;;;;;;9.70;100.00;-18289.31;5016680;28;20106;-87
2023/03/14 05:05:10;;;;;;;11.15;2.35;;;;;;;9.74;100.00;-18290.16;5023314;28;20049;-87
2023/03/14 05:07:36;;;;;;;9.30;2.35;;;;;;;9.73;100.00;-18290.00;5024944;28;20041;-87
2023/03/14 05:10:01;;;;;;;7.63;2.13;;;;;;;9.72;100.00;-18289.75;5037120;28;20051;-87
2023/03/14 05:12:27;;;;;;;10.18;2.20;;;;;;;9.69;100.00;-18288.91;5037141;28;20780;-86
2023/03/14 05:14:52;;;;;;;8.90;2.10;;;;;;;9.69;100.00;-18288.91;5033904;28;20037;-86
2023/03/14 05:17:18;;;;;;;9.10;1.58;;;;;;;9.74;100.00;-18290.16;5020018;28;20085;-88
2023/03/14 05:19:44;;;;;;;9.43;2.35;;;;;;;9.71;100.00;-18289.59;5022085;28;20088;-86
2023/03/14 05:22:10;;;;;;;10.85;2.13;;;;;;;9.79;100.00;-18291.53;5037907;28;20103;-86
2023/03/14 05:24:36;;;;;;;9.55;1.50;;;;;;;9.75;100.00;-18290.44;5044551;28;20075;-88
2023/03/14 05:27:01;;;;;;;12.27;1.63;;;;;;;9.64;100.00;-18287.53;5028996;28;20713;-86
2023/03/14 05:29:27;;;;;;;7.53;1.85;;;;;;;9.66;100.00;-18288.22;5033049;28;20041;-86
2023/03/14 05:31:52;;;;;;;8.20;1.40;;;;;;;9.66;100.00;-18288.22;5043623;28;20044;-86
2023/03/14 05:34:17;;;;;;;6.68;1.50;;;;;;;9.71;100.00;-18289.47;5040991;28;20045;-85
2023/03/14 05:36:43;;;;;;;10.88;2.35;;;;;;;9.63;100.00;-18287.41;5031295;28;20476;-87
2023/03/14 05:39:08;;;;;;;7.70;1.50;;;;;;;9.67;100.00;-18288.38;5039734;28;20053;-88
2023/03/14 05:41:33;;;;;;;10.82;2.08;;;;;;;9.67;100.00;-18288.50;5038383;28;20056;-86
2023/03/14 05:43:59;;;;;;;9.13;1.88;;;;;;;9.69;100.00;-18288.91;5054909;28;20045;-86
2023/03/14 05:46:24;;;;;;;6.97;1.40;;;;;;;9.61;100.00;-18286.84;5051965;28;20814;-86
2023/03/14 05:48:50;;;;;;;6.18;1.30;;;;;;;9.61;100.00;-18286.84;5054502;28;20413;-86
2023/03/14 05:51:15;;;;;;;4.78;1.40;;;;;;;9.65;100.00;-18287.81;5035406;28;20049;-86
2023/03/14 05:53:40;;;;;;;6.45;1.50;;;;;;;9.68;100.00;-18288.63;5060579;28;20040;-87
2023/03/14 05:56:06;;;;;;;7.65;1.55;;;;;;;9.66;100.00;-18288.22;5049362;28;20041;-86
2023/03/14 05:58:32;;;;;;;4.45;1.98;;;;;;;9.71;100.00;-18289.47;5060289;28;20388;-86
2023/03/14 06:00:57;;;;;;;6.82;1.88;;;;;;;9.79;100.00;-18291.66;5044139;28;20040;-86
2023/03/14 06:03:23;;;;;;;6.47;1.20;;;;;;;9.79;100.00;-18291.53;5047025;28;20555;-86
2023/03/14 06:05:52;;;;;;;3.65;1.05;;;;;;;9.75;100.00;-18290.44;5059837;28;20044;-86
2023/03/14 06:08:17;;;;;;;7.72;1.10;;;;;;;9.77;100.00;-18291.13;5034530;28;20770;-87
2023/03/14 06:10:42;;;;;;;5.40;1.40;;;;;;;9.69;100.00;-18289.06;5044240;28;20040;-86
2023/03/14 06:13:08;;;;;;;6.20;1.27;;;;;;;9.74;100.00;-18290.28;5059361;28;20044;-86
2023/03/14 06:15:35;;;;;;;10.05;1.30;;;;;;;9.74;100.00;-18290.16;5055981;28;20133;-88
2023/03/14 06:18:00;;;;;;;4.65;1.30;;;;;;;9.74;100.00;-18290.28;5046565;28;20044;-87
2023/03/14 06:20:25;;;;;;;5.22;1.10;;;;;;;9.77;100.00;-18290.97;5059066;28;20396;-88
2023/03/14 06:22:51;;;;;;;4.80;1.13;;;;;;;9.75;100.00;-18290.44;5061843;28;20131;-87
2023/03/14 06:25:16;;;;;;;4.20;0.98;;;;;;;9.66;100.00;-18288.09;5056342;28;20496;-86
2023/03/14 06:27:42;;;;;;;3.65;1.45;;;;;;;9.64;100.00;-18287.53;5060256;28;20043;-86
2023/03/14 06:30:08;;;;;;;3.55;1.35;;;;;;;9.57;100.00;-18285.63;5047173;28;20056;-85
2023/03/14 06:32:33;;;;;;;4.82;1.45;;;;;;;9.56;100.00;-18285.34;5062415;28;20052;-88
2023/03/14 06:35:00;;;;;;;5.60;1.30;;;;;;;9.52;100.00;-18284.38;5066725;28;20095;-86
2023/03/14 06:37:28;;;;;;;4.25;1.30;;;;;;;9.49;100.00;-18283.69;5049884;28;20051;-85
2023/03/14 06:39:53;;;;;;;7.22;1.45;;;;;;;9.42;100.00;-18281.63;5062548;28;20063;-86
2023/03/14 06:42:19;;;;;;;7.20;2.80;;;;;;;9.41;100.00;-18281.34;5062749;28;20508;-86
2023/03/14 06:44:44;;;;;;;3.08;1.40;;;;;;;9.36;100.00;-18279.97;5045199;28;20492;-85
2023/03/14 06:47:09;;;;;;;5.10;1.83;;;;;;;9.37;100.00;-18280.38;5060356;28;20040;-86
2023/03/14 06:49:35;;;;;;;3.92;1.27;;;;;;;9.29;100.00;-18278.06;5067573;28;20056;-86
2023/03/14 06:52:00;;;;;;;4.75;1.50;;;;;;;9.25;100.00;-18277.22;5049663;28;20475;-85
2023/03/14 06:54:25;;;;;;;6.00;1.63;;;;;;;9.29;100.00;-18278.19;5053219;28;20446;-85
2023/03/14 06:56:51;;;;;;;3.30;1.65;;;;;;;9.33;100.00;-18279.16;5056187;28;20114;-86
2023/03/14 06:59:16;;;;;;;4.38;1.80;;;;;;;9.32;100.00;-18278.88;5063049;28;20527;-86
2023/03/14 07:01:41;;;;;;;5.85;1.80;;;;;;;9.35;100.00;-18279.84;5065609;28;20403;-86
2023/03/14 07:04:09;;;;;;;4.05;1.90;;;;;;;9.36;100.00;-18280.13;5050309;28;20045;-85
2023/03/14 07:06:34;;;;;;;4.43;1.80;;;;;;;9.39;100.00;-18280.81;5062830;28;20037;-85
2023/03/14 07:09:00;;;;;;;4.10;2.15;;;;;;;9.42;100.00;-18281.63;5061150;28;20055;-86
2023/03/14 07:11:26;;;;;;;5.80;2.08;;;;;;;9.47;100.00;-18283.00;5064246;28;20535;-86
2023/03/14 07:13:51;;;;;;;4.60;2.13;;;;;;;9.48;100.00;-18283.41;5059925;28;20036;-85
2023/03/14 07:16:17;;;;;;;4.38;2.35;;;;;;;9.50;100.00;-18283.81;5046848;28;20610;-85
2023/03/14 07:18:42;;;;;;;6.30;2.30;;;;;;;9.47;100.00;-18283.00;5063351;28;20036;-86
2023/03/14 07:21:12;;;;;;;4.25;1.85;;;;;;;9.45;100.00;-18282.44;5060748;28;20067;-85
2023/03/14 07:23:38;;;;;;;3.35;2.00;;;;;;;9.45;100.00;-18282.59;5060904;28;20044;-86
2023/03/14 07:26:04;;;;;;;6.40;2.70;;;;;;;9.46;100.00;-18282.72;5063324;28;20475;-85
2023/03/14 07:28:29;;;;;;;4.22;2.30;;;;;;;9.49;100.00;-18283.56;5047808;28;20040;-87
2023/03/14 07:30:55;;;;;;;5.70;2.53;;;;;;;9.52;100.00;-18284.25;5040204;28;20033;-86
2023/03/14 07:33:21;;;;;;;7.22;2.35;;;;;;;9.54;100.00;-18284.94;5029197;28;20042;-85
2023/03/14 07:35:48;;;;;;;5.82;2.53;;;;;;;9.46;100.00;-18282.88;5016129;28;20049;-87
2023/03/14 07:38:14;;;;;;;4.78;2.67;;;;;;;9.48;100.00;-18283.28;5022710;28;20046;-87
2023/03/14 07:40:39;;;;;;;6.18;2.90;;;;;;;9.56;100.00;-18285.47;4995776;28;20103;-87
2023/03/14 07:43:04;;;;;;;5.65;2.42;;;;;;;9.55;100.00;-18285.19;5004469;28;20045;-86
2023/03/14 07:45:30;;;;;;;5.97;2.90;;;;;;;9.55;100.00;-18285.19;5006189;28;20535;-87
2023/03/14 07:47:57;;;;;;;4.85;2.88;;;;;;;9.59;100.00;-18286.31;5016939;28;20110;-88
2023/03/14 07:50:23;;;;;;;6.50;3.00;;;;;;;9.55;100.00;-18285.06;5020714;28;20042;-87
2023/03/14 07:52:49;;;;;;;6.75;3.08;;;;;;;9.56;100.00;-18285.47;5020554;28;20060;-86
2023/03/14 07:55:14;;;;;;;5.65;3.30;;;;;;;9.51;100.00;-18284.09;5010532;28;20037;-86
2023/03/14 07:57:40;;;;;;;5.47;3.50;;;;;;;9.53;100.00;-18284.66;5014909;28;20240;-85
2023/03/14 08:00:07;;;;;;;9.90;3.83;;;;;;;9.50;100.00;-18283.81;5055200;28;20071;-86
2023/03/14 08:02:32;;;;;;;8.52;5.13;;;;;;;9.49;100.00;-18283.56;5061436;28;20048;-87
2023/03/14 08:04:57;;;;;;;9.82;3.95;;;;;;;9.43;100.00;-18282.03;5042209;28;20079;-87
2023/03/14 08:07:23;;;;;;;8.48;4.75;;;;;;;9.49;100.00;-18283.69;5067526;28;20044;-86
2023/03/14 08:09:48;;;;;;;6.53;4.47;;;;;;;9.38;100.00;-18280.53;5048465;28;20132;-86
2023/03/14 08:12:14;;;;;;;8.18;4.97;;;;;;;9.36;100.00;-18280.13;5063057;28;20037;-86
2023/03/14 08:14:39;;;;;;;9.18;5.10;;;;;;;9.34;100.00;-18279.44;5046931;28;20071;-85
2023/03/14 08:17:05;;;;;;;9.52;4.82;;;;;;;9.38;100.00;-18280.53;5065455;28;20032;-86
2023/03/14 08:19:30;;;;;;;7.15;5.20;;;;;;;9.37;100.00;-18280.25;5050215;28;20514;-85
2023/03/14 08:21:55;;;;;;;5.57;4.13;;;;;;;9.39;100.00;-18280.94;5058048;28;20063;-85
2023/03/14 08:24:21;;;;;;;4.50;3.67;;;;;;;9.33;100.00;-18279.28;5063534;28;20042;-86
2023/03/14 08:26:46;;;;;;;6.40;4.38;;;;;;;9.37;100.00;-18280.25;5047239;28;20032;-87
2023/03/14 08:29:12;;;;;;;6.97;4.38;;;;;;;9.42;100.00;-18281.75;5042133;28;20036;-86
2023/03/14 08:31:38;;;;;;;7.30;5.35;;;;;;;9.41;100.00;-18281.50;5048235;28;20726;-87
2023/03/14 08:34:03;;;;;;;7.65;4.47;;;;;;;9.43;100.00;-18282.03;5049124;28;20174;-86
2023/03/14 08:36:29;;;;;;;6.30;4.47;;;;;;;9.45;100.00;-18282.44;5051406;28;20622;-86
2023/03/14 08:38:54;;;;;;;10.10;5.63;;;;;;;9.45;100.00;-18282.59;5066118;28;20044;-86
2023/03/14 08:41:20;;;;;;;7.03;6.20;;;;;;;9.38;100.00;-18280.66;5061339;28;20178;-85
2023/03/14 08:43:45;;;;;;;5.18;2.97;;;;;;;9.06;100.00;-18271.84;5063764;28;20076;-85
2023/03/14 08:46:11;;;;;;;4.40;2.60;;;;;;;8.73;100.00;-18263.19;5039343;28;20067;-85
2023/03/14 08:48:36;;;;;;;3.70;1.40;;;;;;;8.35;100.00;-18253.00;5067445;28;20119;-86
2023/03/14 08:51:10;;;;;;;2.25;1.90;;;;;;;8.17;100.00;-18247.91;5055300;28;20041;-85
2023/03/14 08:53:37;;;;;;;3.00;2.25;;;;;;;8.10;100.00;-18246.25;5062856;28;20040;-86
2023/03/14 08:56:03;;;;;;;2.65;1.60;;;;;;;7.94;100.00;-18241.72;5060769;28;20418;-86
2023/03/14 08:58:29;;;;;;;2.80;1.95;;;;;;;7.84;100.00;-18239.22;5045474;28;20084;-86
2023/03/14 09:00:54;;;;;;;2.42;1.92;;;;;;;7.72;100.00;-18235.94;5055715;28;20068;-86
2023/03/14 09:03:22;;;;;;;4.70;2.15;;;;;;;7.72;100.00;-18235.78;5056203;28;20051;-86
2023/03/14 09:05:48;;;;;;;3.20;2.00;;;;;;;7.62;100.00;-18233.16;5060612;28;20492;-87
2023/03/14 09:08:14;;;;;;;1.63;1.50;;;;;;;7.53;100.00;-18230.69;5057971;28;20049;-86
2023/03/14 09:10:39;;;;;;;2.20;1.60;;;;;;;7.36;100.00;-18226.28;5058554;28;20097;-85
2023/03/14 09:13:04;;;;;;;2.67;1.80;;;;;;;7.41;100.00;-18227.66;5057283;28;20041;-86
2023/03/14 09:15:30;;;;;;;2.63;2.00;;;;;;;7.41;100.00;-18227.53;5054839;28;20055;-86
2023/03/14 09:17:55;;;;;;;3.30;2.20;;;;;;;7.40;100.00;-18227.25;5057527;28;20514;-86
2023/03/14 09:20:21;;;;;;;2.38;1.60;;;;;;;7.23;100.00;-18222.69;5046136;28;20230;-86
2023/03/14 09:22:46;;;;;;;3.92;2.20;;;;;;;7.17;100.00;-18221.19;5045742;28;20041;-86
2023/03/14 09:25:11;;;;;;;3.08;2.05;;;;;;;7.16;100.00;-18220.78;5034663;28;20412;-86
2023/03/14 09:27:37;;;;;;;4.20;2.40;;;;;;;7.19;100.00;-18221.75;5044556;28;20103;-86
2023/03/14 09:30:03;;;;;;;3.00;2.50;;;;;;;7.22;100.00;-18222.56;5053300;28;20381;-86
2023/03/14 09:32:31;;;;;;;5.07;2.63;;;;;;;7.18;100.00;-18221.31;5043435;28;20033;-87
2023/03/14 09:34:56;;;;;;;4.70;2.83;;;;;;;7.18;100.00;-18221.47;5060357;28;20067;-86
2023/03/14 09:37:22;;;;;;;3.88;2.70;;;;;;;7.09;100.00;-18218.84;5056540;28;20496;-88
2023/03/14 09:39:47;;;;;;;4.53;2.38;;;;;;;6.95;100.00;-18215.13;5056022;28;20044;-86
2023/03/14 09:42:21;;;;;;;3.90;1.75;;;;;;;6.72;100.00;-18208.91;5043723;28;20043;-87
2023/03/14 09:45:12;;;;;;;4.60;2.45;;;;;;;6.65;100.00;-18207.00;5053317;28;20060;-87
2023/03/14 09:47:39;;;;;;;3.85;1.80;;;;;;;6.54;100.00;-18204.09;5022458;28;20558;-86
2023/03/14 09:50:14;;;;;;;1.67;1.27;;;;;;;6.33;100.00;-18198.44;5045426;28;20040;-87
2023/03/14 09:52:41;;;;;;;4.97;1.10;;;;;;;6.15;100.00;-18193.63;5028058;28;20068;-87
2023/03/14 09:55:13;;;;;;;4.10;1.50;;;;;;;6.10;100.00;-18192.25;5048935;28;20506;-87
2023/03/14 09:57:40;;;;;;;3.70;1.38;;;;;;;5.91;100.00;-18187.13;5045857;28;20111;-86
2023/03/14 10:00:28;;;;;;;1.90;1.15;;;;;;;5.74;100.00;-18182.44;5049108;28;20037;-86
2023/03/14 10:02:56;;;;;;;2.10;0.90;;;;;;;5.68;100.00;-18180.78;5012298;28;20132;-87
2023/03/14 10:05:24;;;;;;;3.08;1.25;;;;;;;5.67;100.00;-18180.66;5063129;28;20049;-87
2023/03/14 10:07:50;;;;;;;1.27;0.90;;;;;;;5.66;100.00;-18180.50;5039111;28;20052;-87
2023/03/14 10:10:21;;;;;;;1.10;0.90;;;;;;;5.66;100.00;-18180.50;5057452;28;20041;-87
2023/03/14 10:12:59;;;;;;;3.03;1.10;;;;;;;5.70;100.00;-18181.47;5042957;28;20072;-87
2023/03/14 10:15:29;;;;;;;3.55;1.17;;;;;;;5.68;100.00;-18180.78;5055818;28;20061;-86
2023/03/14 10:17:54;;;;;;;2.38;1.17;;;;;;;5.61;100.00;-18179.13;5056652;28;20052;-86
2023/03/14 10:20:41;;;;;;;3.45;1.38;;;;;;;5.55;100.00;-18177.47;5044291;28;20139;-86
2023/03/14 10:23:24;;;;;;;4.00;2.17;;;;;;;5.61;100.00;-18179.13;5045398;28;20075;-86
2023/03/14 10:26:08;;;;;;;2.33;0.95;;;;;;;5.64;100.00;-18179.97;5043714;28;20049;-87
2023/03/14 10:28:39;;;;;;;8.27;6.43;;;;;;;5.72;100.00;-18181.88;5064562;28;20060;-85
2023/03/14 10:31:05;;;;;;;2.10;1.25;;;;;;;5.76;100.00;-18183.00;5048107;28;20509;-86
2023/03/14 10:33:36;;;;;;;7.35;3.42;;;;;;;5.78;100.00;-18183.53;5064639;28;20071;-87
2023/03/14 10:36:05;;;;;;;8.32;4.43;;;;;;;5.75;100.00;-18182.84;5060240;28;20048;-86
2023/03/14 10:38:34;;;;;;;;;;;;;;;5.71;100.00;-18181.75;5062313;28;20135;-86
2023/03/14 10:41:01;;;;;;;5.28;2.38;;;;;;;5.63;100.00;-18179.53;5046957;28;19916;-86
2023/03/14 10:43:30;;;;;;;9.98;4.45;;;;;;;5.79;100.00;-18183.97;5064622;28;20388;-86
2023/03/14 10:46:05;;;;;;;5.60;1.70;;;;;;;5.71;100.00;-18181.63;5043013;28;20500;-86
2023/03/14 10:48:40;;;;;;;13.73;7.53;;;;;;;5.90;100.00;-18186.84;5065965;28;20036;-86
2023/03/14 10:51:17;;;;;;;13.02;5.53;;;;;;;5.98;100.00;-18188.94;5055382;28;20198;-86
2023/03/14 10:54:03;;;;;;;20.75;10.40;;;;;;;5.98;100.00;-18188.94;5030256;28;20041;-86
2023/03/14 10:56:36;;;;;;;7.75;2.17;;;;;;;6.01;100.00;-18189.91;5061311;28;20045;-86
2023/03/14 10:59:03;;;;;;;10.73;4.95;;;;;;;6.04;100.00;-18190.72;5058042;28;20052;-86
2023/03/14 11:01:43;;;;;;;6.63;2.30;;;;;;;5.98;100.00;-18189.06;5042999;28;20131;-87
2023/03/14 11:05:04;;;;;;;8.07;3.42;;;;;;;6.02;100.00;-18190.16;5056784;28;20389;-86
2023/03/14 11:07:39;;;;;;;8.32;3.28;;;;;;;5.92;100.00;-18187.25;5001665;28;20109;-86
2023/03/14 11:10:14;;;;;;;13.80;5.28;;;;;;;5.93;100.00;-18187.69;4997296;28;20224;-87
2023/03/14 11:13:01;;;;;;;5.60;1.92;;;;;;;5.92;100.00;-18187.25;5041895;28;20051;-86
2023/03/14 11:15:58;;;;;;;7.97;3.22;;;;;;;6.09;100.00;-18191.97;5058550;28;20711;-86
2023/03/14 11:18:53;;;;;;;6.50;2.28;;;;;;;6.13;100.00;-18193.06;5057308;28;20056;-87
2023/03/14 11:21:29;;;;;;;8.90;2.47;;;;;;;6.24;100.00;-18196.09;5058616;28;20044;-87
2023/03/14 11:24:01;;;;;;;35.72;15.13;;;;;;;6.26;100.00;-18196.50;5062804;28;20058;-86